Time;durP1;ratioP1;P1;durP2;ratioP2;P2;SDS_P1;SDS_P2;PMS_P1;PMS_P2;Temp;Humidity;BMP_temperature;BMP_pressure;BME280_temperature;BME280_humidity;BME280_pressure;Samples;Min_cycle;Max_cycle;Signal;HPM_P1;HPM_P2
2022/03/31 00:00:37;;;;;;;3.38;0.30;;;;;;;;;;5081372;28;20070;-72
2022/03/31 00:03:04;;;;;;;2.45;0.80;;;;;;;;;;5084685;28;20024;-71
2022/03/31 00:05:30;;;;;;;5.55;0.80;;;;;;;;;;5095498;28;20110;-72
2022/03/31 00:07:58;;;;;;;6.20;0.63;;;;;;;;;;5110562;28;20062;-72
2022/03/31 00:10:25;;;;;;;4.13;1.45;;;;;;;;;;5089530;28;20034;-71
2022/03/31 00:12:52;;;;;;;1.92;0.30;;;;;;;;;;5058408;28;20052;-72
2022/03/31 00:15:19;;;;;;;4.25;0.80;;;;;;;;;;5101704;28;20024;-72
2022/03/31 00:17:45;;;;;;;4.38;0.73;;;;;;;;;;5083515;28;20032;-71
2022/03/31 00:20:12;;;;;;;8.40;0.90;;;;;;;;;;5092081;28;20036;-72
2022/03/31 00:22:39;;;;;;;6.55;0.95;;;;;;;;;;5084115;28;20464;-71
2022/03/31 00:25:06;;;;;;;6.18;0.77;;;;;;;;;;5094172;28;20375;-72
2022/03/31 00:27:32;;;;;;;2.80;0.50;;;;;;;;;;5106580;28;20032;-72
2022/03/31 00:29:58;;;;;;;3.80;0.60;;;;;;;;;;5093822;28;20065;-72
2022/03/31 00:32:24;;;;;;;4.18;0.65;;;;;;;;;;5081764;28;20499;-72
2022/03/31 00:34:50;;;;;;;4.20;0.82;;;;;;;;;;5089940;28;20025;-72
2022/03/31 00:37:16;;;;;;;5.40;1.20;;;;;;;;;;5093581;28;20123;-72
2022/03/31 00:39:42;;;;;;;2.08;0.60;;;;;;;;;;5069200;28;20020;-72
2022/03/31 00:42:10;;;;;;;3.90;0.50;;;;;;;;;;5092337;28;20032;-72
2022/03/31 00:44:36;;;;;;;4.50;0.90;;;;;;;;;;5081263;28;20106;-72
2022/03/31 00:47:02;;;;;;;6.47;1.08;;;;;;;;;;5094425;28;20036;-72
2022/03/31 00:49:29;;;;;;;6.30;1.10;;;;;;;;;;5095723;28;20023;-72
2022/03/31 00:51:55;;;;;;;6.45;0.60;;;;;;;;;;5096554;28;20059;-71
2022/03/31 00:54:22;;;;;;;4.20;0.80;;;;;;;;;;5070591;28;20041;-72
2022/03/31 00:56:49;;;;;;;7.05;1.15;;;;;;;;;;5090025;28;20048;-71
2022/03/31 00:59:17;;;;;;;6.78;1.23;;;;;;;;;;5083767;28;20405;-71
2022/03/31 01:01:44;;;;;;;3.33;1.02;;;;;;;;;;5098393;28;20038;-71
2022/03/31 01:04:12;;;;;;;7.28;0.95;;;;;;;;;;5099543;28;20035;-71
2022/03/31 01:06:38;;;;;;;3.25;0.70;;;;;;;;;;5111943;28;20016;-71
2022/03/31 01:09:05;;;;;;;3.72;1.00;;;;;;;;;;5095810;28;20464;-71
2022/03/31 01:11:31;;;;;;;9.15;1.38;;;;;;;;;;5091672;28;20024;-72
2022/03/31 01:13:58;;;;;;;12.25;1.08;;;;;;;;;;5086854;28;20149;-72
2022/03/31 01:16:24;;;;;;;4.57;0.90;;;;;;;;;;5114582;27;20038;-72
2022/03/31 01:18:51;;;;;;;2.08;0.60;;;;;;;;;;5088168;28;20490;-72
2022/03/31 01:21:17;;;;;;;4.30;0.68;;;;;;;;;;5104983;28;20040;-72
2022/03/31 01:23:44;;;;;;;3.63;0.80;;;;;;;;;;5103724;28;20039;-72
2022/03/31 01:26:10;;;;;;;3.05;1.05;;;;;;;;;;5081563;28;20039;-72
2022/03/31 01:28:42;;;;;;;6.30;1.23;;;;;;;;;;5101168;28;20109;-72
2022/03/31 01:31:09;;;;;;;3.97;1.10;;;;;;;;;;5085401;28;20036;-72
2022/03/31 01:33:35;;;;;;;4.22;0.70;;;;;;;;;;5099642;28;20067;-72
2022/03/31 01:36:07;;;;;;;4.57;0.80;;;;;;;;;;5086000;28;20069;-72
2022/03/31 01:38:33;;;;;;;13.82;2.13;;;;;;;;;;5084759;28;20523;-72
2022/03/31 01:40:59;;;;;;;4.05;0.77;;;;;;;;;;5082025;28;20032;-72
2022/03/31 01:43:26;;;;;;;2.30;0.65;;;;;;;;;;5077846;28;20043;-72
2022/03/31 01:45:54;;;;;;;4.57;0.90;;;;;;;;;;5090824;28;20056;-72
2022/03/31 01:48:20;;;;;;;2.17;1.10;;;;;;;;;;5089338;28;20475;-72
2022/03/31 01:50:46;;;;;;;5.88;0.85;;;;;;;;;;5094249;28;20039;-72
2022/03/31 01:53:14;;;;;;;5.88;0.90;;;;;;;;;;5071846;28;20044;-72
2022/03/31 01:55:40;;;;;;;5.70;0.80;;;;;;;;;;5093591;28;20085;-71
2022/03/31 01:58:07;;;;;;;2.63;1.02;;;;;;;;;;5104924;28;20082;-71
2022/03/31 02:00:33;;;;;;;6.25;1.20;;;;;;;;;;5092661;28;20087;-71
2022/03/31 02:02:59;;;;;;;5.72;0.95;;;;;;;;;;5115725;28;20052;-71
2022/03/31 02:05:26;;;;;;;4.05;0.70;;;;;;;;;;5085421;28;20441;-71
2022/03/31 02:07:58;;;;;;;7.32;0.98;;;;;;;;;;5093960;28;20027;-71
2022/03/31 02:10:27;;;;;;;3.08;1.05;;;;;;;;;;5092814;28;20036;-71
2022/03/31 02:12:54;;;;;;;3.58;1.10;;;;;;;;;;5098318;28;20040;-71
2022/03/31 02:15:20;;;;;;;3.00;0.98;;;;;;;;;;5098573;28;20378;-71
2022/03/31 02:17:47;;;;;;;3.15;0.70;;;;;;;;;;5087429;28;20111;-71
2022/03/31 02:20:13;;;;;;;4.50;0.93;;;;;;;;;;5088145;28;20020;-71
2022/03/31 02:22:39;;;;;;;5.47;0.95;;;;;;;;;;5090666;28;20067;-71
2022/03/31 02:25:08;;;;;;;8.52;1.58;;;;;;;;;;5092422;28;20028;-71
2022/03/31 02:27:34;;;;;;;5.43;1.10;;;;;;;;;;5103238;28;20126;-71
2022/03/31 02:30:00;;;;;;;4.30;0.90;;;;;;;;;;5112545;28;20032;-71
2022/03/31 02:32:26;;;;;;;3.20;0.80;;;;;;;;;;5098714;28;20115;-71
2022/03/31 02:34:52;;;;;;;10.25;1.33;;;;;;;;;;5091425;28;20085;-71
2022/03/31 02:37:18;;;;;;;3.05;0.90;;;;;;;;;;5100649;28;20034;-71
2022/03/31 02:39:44;;;;;;;4.68;0.88;;;;;;;;;;5078629;28;20031;-71
2022/03/31 02:42:10;;;;;;;3.75;1.15;;;;;;;;;;5108422;28;20024;-72
2022/03/31 02:44:36;;;;;;;2.55;0.88;;;;;;;;;;5105652;28;20036;-71
2022/03/31 02:47:02;;;;;;;10.48;1.27;;;;;;;;;;5096776;28;20024;-71
2022/03/31 02:49:28;;;;;;;4.88;1.10;;;;;;;;;;5093123;28;20032;-72
2022/03/31 02:51:54;;;;;;;4.72;1.10;;;;;;;;;;5095516;28;20043;-71
2022/03/31 02:57:05;;;;;;;7.15;0.85;;;;;;;;;;5098406;28;20104;-71
2022/03/31 02:59:31;;;;;;;5.00;1.63;;;;;;;;;;5099506;28;20269;-71
2022/03/31 03:01:58;;;;;;;10.10;1.13;;;;;;;;;;5097169;28;20036;-71
2022/03/31 03:04:24;;;;;;;5.97;1.17;;;;;;;;;;5095219;28;20035;-72
2022/03/31 03:06:51;;;;;;;7.50;1.02;;;;;;;;;;5094744;28;20035;-72
2022/03/31 03:09:17;;;;;;;14.85;1.15;;;;;;;;;;5095983;28;20103;-71
2022/03/31 03:11:43;;;;;;;2.05;0.95;;;;;;;;;;5072304;28;20028;-71
2022/03/31 03:14:12;;;;;;;5.22;1.63;;;;;;;;;;5069629;28;20123;-71
2022/03/31 03:16:38;;;;;;;5.93;1.10;;;;;;;;;;5092957;28;20036;-71
2022/03/31 03:19:05;;;;;;;4.55;1.45;;;;;;;;;;5111104;28;20073;-73
2022/03/31 03:21:31;;;;;;;7.80;1.40;;;;;;;;;;5103315;28;20020;-71
2022/03/31 03:23:57;;;;;;;5.80;1.63;;;;;;;;;;5097693;28;20035;-71
2022/03/31 03:26:23;;;;;;;6.35;1.63;;;;;;;;;;5069983;28;20037;-71
2022/03/31 03:28:49;;;;;;;4.05;1.63;;;;;;;;;;5086172;28;20070;-72
2022/03/31 03:31:15;;;;;;;8.45;2.72;;;;;;;;;;5090997;28;20035;-70
2022/03/31 03:33:41;;;;;;;10.88;3.80;;;;;;;;;;5078703;28;20042;-69
2022/03/31 03:36:10;;;;;;;6.20;1.80;;;;;;;;;;5071910;28;20032;-70
2022/03/31 03:38:37;;;;;;;7.28;1.70;;;;;;;;;;5067900;28;20604;-71
2022/03/31 03:41:03;;;;;;;12.40;1.75;;;;;;;;;;5085484;28;20055;-72
2022/03/31 03:43:31;;;;;;;7.05;2.10;;;;;;;;;;5083062;28;20051;-72
2022/03/31 03:45:57;;;;;;;8.43;2.13;;;;;;;;;;5079276;28;20115;-71
2022/03/31 03:48:23;;;;;;;6.20;2.53;;;;;;;;;;5091661;28;20107;-71
2022/03/31 03:50:49;;;;;;;3.38;2.08;;;;;;;;;;5087808;28;20033;-71
2022/03/31 03:53:16;;;;;;;4.70;2.20;;;;;;;;;;5082150;28;20036;-71
2022/03/31 03:55:42;;;;;;;3.13;2.22;;;;;;;;;;5085277;28;20036;-71
2022/03/31 03:58:08;;;;;;;4.75;2.28;;;;;;;;;;5097089;28;20066;-71
2022/03/31 04:00:34;;;;;;;5.00;2.15;;;;;;;;;;5094061;28;20364;-71
2022/03/31 04:03:00;;;;;;;3.65;2.10;;;;;;;;;;5091978;28;20028;-71
2022/03/31 04:05:26;;;;;;;4.20;2.80;;;;;;;;;;5072863;28;20622;-71
2022/03/31 04:07:53;;;;;;;2.65;2.40;;;;;;;;;;5088262;28;20085;-72
2022/03/31 04:10:19;;;;;;;5.78;2.78;;;;;;;;;;5073233;28;20028;-71
2022/03/31 04:12:45;;;;;;;5.13;2.35;;;;;;;;;;5109107;28;20039;-71
2022/03/31 04:15:13;;;;;;;24.25;4.53;;;;;;;;;;5101089;28;20020;-71
2022/03/31 04:17:39;;;;;;;6.85;2.00;;;;;;;;;;5069769;28;20035;-71
2022/03/31 04:20:06;;;;;;;2.33;1.88;;;;;;;;;;5098476;28;20487;-70
2022/03/31 04:22:37;;;;;;;2.55;1.67;;;;;;;;;;5090429;28;20367;-70
2022/03/31 04:25:04;;;;;;;2.55;1.88;;;;;;;;;;5095890;28;20386;-71
2022/03/31 04:27:30;;;;;;;4.50;2.22;;;;;;;;;;5092423;28;20636;-71
2022/03/31 04:29:56;;;;;;;4.13;1.80;;;;;;;;;;5099487;28;20371;-70
2022/03/31 04:32:22;;;;;;;3.60;2.00;;;;;;;;;;5089129;28;20490;-71
2022/03/31 04:34:48;;;;;;;3.78;2.33;;;;;;;;;;5099580;28;20375;-71
2022/03/31 04:37:14;;;;;;;2.20;2.00;;;;;;;;;;5091430;28;20032;-70
2022/03/31 04:39:40;;;;;;;2.50;1.98;;;;;;;;;;5099275;28;20032;-71
2022/03/31 04:42:09;;;;;;;3.58;2.42;;;;;;;;;;5070140;28;20062;-71
2022/03/31 04:44:38;;;;;;;4.25;2.60;;;;;;;;;;5085318;28;20036;-71
2022/03/31 04:47:04;;;;;;;3.65;2.70;;;;;;;;;;5091162;28;20074;-71
2022/03/31 04:49:30;;;;;;;4.43;2.47;;;;;;;;;;5094418;28;20035;-71
2022/03/31 04:51:56;;;;;;;3.00;2.70;;;;;;;;;;5099178;28;20494;-71
2022/03/31 04:54:23;;;;;;;3.78;2.83;;;;;;;;;;5103428;28;20560;-71
2022/03/31 04:56:49;;;;;;;3.30;3.00;;;;;;;;;;5086922;28;20072;-71
2022/03/31 04:59:15;;;;;;;4.40;3.35;;;;;;;;;;5086355;28;20103;-70
2022/03/31 05:01:41;;;;;;;4.20;3.50;;;;;;;;;;5089235;28;20035;-70
2022/03/31 05:04:07;;;;;;;4.63;4.10;;;;;;;;;;5086930;28;20032;-71
2022/03/31 05:06:33;;;;;;;5.28;4.18;;;;;;;;;;5080797;28;20059;-70
2022/03/31 05:08:59;;;;;;;5.75;3.40;;;;;;;;;;5069306;28;20432;-71
2022/03/31 05:11:25;;;;;;;5.45;3.90;;;;;;;;;;5090479;28;20040;-71
2022/03/31 05:13:51;;;;;;;4.70;3.75;;;;;;;;;;5088574;28;20475;-71
2022/03/31 05:16:17;;;;;;;4.65;3.20;;;;;;;;;;5088274;28;20495;-71
2022/03/31 05:18:45;;;;;;;4.10;3.50;;;;;;;;;;5091499;28;20032;-71
2022/03/31 05:21:11;;;;;;;3.00;2.70;;;;;;;;;;5087799;28;20032;-71
2022/03/31 05:23:38;;;;;;;5.65;3.13;;;;;;;;;;5087946;28;20036;-71
2022/03/31 05:26:04;;;;;;;3.15;2.63;;;;;;;;;;5077551;28;20032;-71
2022/03/31 05:28:30;;;;;;;6.60;3.10;;;;;;;;;;5081528;28;20031;-71
2022/03/31 05:30:56;;;;;;;4.47;3.08;;;;;;;;;;5087089;28;20028;-71
2022/03/31 05:33:22;;;;;;;5.72;3.90;;;;;;;;;;5085379;28;20065;-71
2022/03/31 05:35:48;;;;;;;5.05;2.50;;;;;;;;;;5089091;28;20024;-71
2022/03/31 05:38:14;;;;;;;4.15;2.97;;;;;;;;;;5094399;28;20031;-71
2022/03/31 05:40:41;;;;;;;6.05;3.58;;;;;;;;;;5076927;28;20089;-71
2022/03/31 05:43:07;;;;;;;5.82;3.85;;;;;;;;;;5093779;28;20068;-71
2022/03/31 05:45:33;;;;;;;7.03;3.67;;;;;;;;;;5091235;28;20062;-71
2022/03/31 05:47:59;;;;;;;5.68;3.72;;;;;;;;;;5092774;28;20039;-71
2022/03/31 05:50:25;;;;;;;6.28;4.15;;;;;;;;;;5101748;28;20170;-71
2022/03/31 05:52:51;;;;;;;8.68;3.40;;;;;;;;;;5085732;28;20087;-71
2022/03/31 05:55:19;;;;;;;7.28;3.78;;;;;;;;;;5075391;28;20492;-71
2022/03/31 05:57:46;;;;;;;8.50;4.38;;;;;;;;;;5091001;28;20079;-71
2022/03/31 06:00:14;;;;;;;9.10;4.00;;;;;;;;;;5098941;28;20039;-71
2022/03/31 06:02:40;;;;;;;9.38;3.15;;;;;;;;;;5081914;28;20040;-71
2022/03/31 06:05:07;;;;;;;5.25;3.22;;;;;;;;;;5088191;28;20090;-71
2022/03/31 06:07:33;;;;;;;8.43;2.90;;;;;;;;;;5095485;28;20036;-70
2022/03/31 06:09:59;;;;;;;7.82;3.60;;;;;;;;;;5073984;28;20040;-71
2022/03/31 06:12:25;;;;;;;3.42;2.63;;;;;;;;;;5091334;28;20039;-71
2022/03/31 06:14:51;;;;;;;5.90;3.10;;;;;;;;;;5091037;28;20048;-70
2022/03/31 06:17:17;;;;;;;5.13;2.92;;;;;;;;;;5078143;28;20055;-71
2022/03/31 06:19:44;;;;;;;8.55;3.80;;;;;;;;;;5081594;28;20033;-71
2022/03/31 06:22:10;;;;;;;9.35;3.28;;;;;;;;;;5087775;28;20106;-70
2022/03/31 06:24:36;;;;;;;6.32;3.53;;;;;;;;;;5087933;28;20077;-71
2022/03/31 06:27:03;;;;;;;4.85;3.38;;;;;;;;;;5100621;28;20131;-71
2022/03/31 06:29:30;;;;;;;10.05;4.00;;;;;;;;;;5075354;28;20403;-71
2022/03/31 06:31:57;;;;;;;7.78;4.25;;;;;;;;;;5091872;28;20039;-70
2022/03/31 06:34:23;;;;;;;7.50;3.78;;;;;;;;;;5095144;28;20044;-70
2022/03/31 06:36:49;;;;;;;5.53;3.80;;;;;;;;;;5098527;28;20043;-70
2022/03/31 06:39:15;;;;;;;6.57;3.78;;;;;;;;;;5103818;28;20031;-70
2022/03/31 06:41:44;;;;;;;4.13;3.72;;;;;;;;;;5076927;28;20016;-71
2022/03/31 06:44:13;;;;;;;4.75;3.85;;;;;;;;;;5091325;28;20048;-71
2022/03/31 06:46:39;;;;;;;6.18;4.05;;;;;;;;;;5087770;28;20093;-71
2022/03/31 06:49:05;;;;;;;6.18;3.80;;;;;;;;;;5096402;28;20031;-71
2022/03/31 06:51:31;;;;;;;3.85;3.55;;;;;;;;;;5089061;28;20081;-71
2022/03/31 06:53:59;;;;;;;5.35;4.25;;;;;;;;;;5087853;28;20036;-71
2022/03/31 06:56:27;;;;;;;5.57;4.22;;;;;;;;;;5090597;28;20152;-70
2022/03/31 06:58:53;;;;;;;5.95;4.68;;;;;;;;;;5098791;28;20436;-70
2022/03/31 07:01:19;;;;;;;5.20;4.70;;;;;;;;;;5090197;28;20031;-70
2022/03/31 07:03:45;;;;;;;4.57;4.15;;;;;;;;;;5098835;28;20149;-70
2022/03/31 07:06:12;;;;;;;8.07;4.05;;;;;;;;;;5105984;28;20067;-71
2022/03/31 07:08:38;;;;;;;5.97;3.95;;;;;;;;;;5083608;28;20060;-70
2022/03/31 07:11:05;;;;;;;4.63;4.13;;;;;;;;;;5070876;28;20464;-70
2022/03/31 07:13:31;;;;;;;5.20;3.60;;;;;;;;;;5088022;28;20059;-70
2022/03/31 07:15:57;;;;;;;3.80;3.00;;;;;;;;;;5072008;28;20417;-69
2022/03/31 07:18:24;;;;;;;3.22;2.90;;;;;;;;;;5093413;28;20251;-69
2022/03/31 07:20:50;;;;;;;4.82;3.05;;;;;;;;;;5103982;28;20032;-69
2022/03/31 07:23:18;;;;;;;3.10;2.80;;;;;;;;;;5070500;28;20036;-70
2022/03/31 07:25:44;;;;;;;3.40;3.10;;;;;;;;;;5117148;27;20970;-70
2022/03/31 07:28:10;;;;;;;3.08;2.78;;;;;;;;;;5101066;28;20032;-70
2022/03/31 07:30:36;;;;;;;3.72;3.42;;;;;;;;;;5099994;28;20042;-70
2022/03/31 07:33:03;;;;;;;3.75;3.45;;;;;;;;;;5080870;28;20032;-70
2022/03/31 07:35:31;;;;;;;3.33;3.03;;;;;;;;;;5106571;28;20094;-70
2022/03/31 07:37:57;;;;;;;3.60;3.30;;;;;;;;;;5091747;28;20031;-70
2022/03/31 07:40:24;;;;;;;3.50;3.20;;;;;;;;;;5104738;28;20038;-70
2022/03/31 07:42:50;;;;;;;3.67;3.33;;;;;;;;;;5081519;28;20028;-70
2022/03/31 07:45:17;;;;;;;3.75;3.45;;;;;;;;;;5065532;28;20024;-69
2022/03/31 07:47:43;;;;;;;3.85;3.35;;;;;;;;;;5096665;28;20082;-70
2022/03/31 07:50:11;;;;;;;3.90;3.50;;;;;;;;;;5092564;28;20020;-71
2022/03/31 07:52:37;;;;;;;3.25;2.95;;;;;;;;;;5077299;28;20068;-71
2022/03/31 07:55:04;;;;;;;3.83;3.53;;;;;;;;;;5092260;28;20024;-70
2022/03/31 07:57:30;;;;;;;3.58;3.28;;;;;;;;;;5088648;28;20048;-70
2022/03/31 07:59:57;;;;;;;3.53;3.22;;;;;;;;;;5108234;28;20399;-70
2022/03/31 08:02:25;;;;;;;4.40;3.78;;;;;;;;;;5075634;28;20035;-69
2022/03/31 08:04:51;;;;;;;5.95;5.07;;;;;;;;;;5089197;28;20054;-71
2022/03/31 08:07:17;;;;;;;4.10;3.70;;;;;;;;;;5081481;28;20494;-71
2022/03/31 08:09:44;;;;;;;4.45;4.00;;;;;;;;;;5106803;28;20035;-71
2022/03/31 08:12:10;;;;;;;5.10;4.60;;;;;;;;;;5092365;28;20100;-70
2022/03/31 08:14:36;;;;;;;4.68;4.20;;;;;;;;;;5081478;28;20047;-70
2022/03/31 08:17:03;;;;;;;4.65;4.25;;;;;;;;;;5088532;28;20048;-70
2022/03/31 08:19:30;;;;;;;7.95;5.32;;;;;;;;;;5082434;28;20055;-70
2022/03/31 08:21:57;;;;;;;4.90;4.45;;;;;;;;;;5105166;28;20028;-70
2022/03/31 08:24:23;;;;;;;5.10;4.60;;;;;;;;;;5096382;28;20063;-70
2022/03/31 08:26:50;;;;;;;5.07;4.57;;;;;;;;;;5087319;28;20034;-70
2022/03/31 08:29:20;;;;;;;4.90;4.50;;;;;;;;;;5093257;28;20043;-70
2022/03/31 08:31:46;;;;;;;5.60;5.00;;;;;;;;;;5062461;28;20040;-69
2022/03/31 08:34:13;;;;;;;5.45;4.95;;;;;;;;;;5076848;28;20055;-69
2022/03/31 08:36:39;;;;;;;6.53;5.80;;;;;;;;;;5094035;28;20509;-69
2022/03/31 08:39:05;;;;;;;12.43;5.57;;;;;;;;;;5085746;28;20036;-70
2022/03/31 08:41:32;;;;;;;10.07;6.53;;;;;;;;;;5078100;28;20024;-70
2022/03/31 08:43:58;;;;;;;6.82;5.97;;;;;;;;;;5068552;28;20145;-70
2022/03/31 08:46:27;;;;;;;5.28;4.78;;;;;;;;;;5096168;28;20113;-70
2022/03/31 08:48:54;;;;;;;5.25;4.75;;;;;;;;;;5083158;28;20028;-70
2022/03/31 08:51:22;;;;;;;5.10;4.60;;;;;;;;;;5086859;28;20063;-70
2022/03/31 08:53:48;;;;;;;6.07;5.43;;;;;;;;;;5100370;28;20043;-70
2022/03/31 08:56:15;;;;;;;4.60;4.20;;;;;;;;;;5111525;28;20044;-70
2022/03/31 08:58:43;;;;;;;6.22;4.35;;;;;;;;;;5100457;28;20027;-70
2022/03/31 09:01:11;;;;;;;5.90;5.30;;;;;;;;;;5106781;28;20028;-70
2022/03/31 09:03:38;;;;;;;5.75;4.95;;;;;;;;;;5094352;28;20425;-70
2022/03/31 09:06:04;;;;;;;4.43;4.03;;;;;;;;;;5087956;28;20059;-70
2022/03/31 09:08:31;;;;;;;4.32;3.92;;;;;;;;;;5089766;28;20099;-70
2022/03/31 09:11:00;;;;;;;5.85;4.95;;;;;;;;;;5091059;28;20020;-70
2022/03/31 09:13:28;;;;;;;5.90;5.30;;;;;;;;;;5090130;28;20096;-70
2022/03/31 09:16:04;;;;;;;5.10;4.60;;;;;;;;;;5091496;28;20020;-70
2022/03/31 09:18:31;;;;;;;5.45;4.95;;;;;;;;;;5091082;28;20034;-70
2022/03/31 09:20:59;;;;;;;10.43;5.55;;;;;;;;;;5084863;28;20103;-70
2022/03/31 09:23:28;;;;;;;7.30;6.50;;;;;;;;;;5097460;28;20035;-70
2022/03/31 09:26:01;;;;;;;11.57;7.70;;;;;;;;;;5087328;28;20036;-70
2022/03/31 09:28:27;;;;;;;10.25;6.78;;;;;;;;;;5091412;28;20021;-69
2022/03/31 09:30:55;;;;;;;5.88;5.28;;;;;;;;;;5081075;28;20028;-69
2022/03/31 09:33:32;;;;;;;6.10;5.20;;;;;;;;;;5087915;28;20085;-69
2022/03/31 09:36:13;;;;;;;7.10;5.55;;;;;;;;;;5092081;28;20032;-70
2022/03/31 09:38:40;;;;;;;5.88;5.25;;;;;;;;;;5084362;28;20048;-69
2022/03/31 09:41:17;;;;;;;9.45;6.40;;;;;;;;;;5103392;28;20028;-70
2022/03/31 09:43:43;;;;;;;6.57;5.90;;;;;;;;;;5084894;28;20498;-69
2022/03/31 09:46:18;;;;;;;9.73;7.30;;;;;;;;;;5072330;28;20115;-70
2022/03/31 09:48:45;;;;;;;8.30;6.45;;;;;;;;;;5087395;28;20114;-69
2022/03/31 09:51:11;;;;;;;7.68;6.03;;;;;;;;;;5091341;28;20068;-69
2022/03/31 09:53:38;;;;;;;9.93;7.38;;;;;;;;;;5097451;28;20040;-69
2022/03/31 09:56:04;;;;;;;7.75;6.80;;;;;;;;;;5066366;28;20032;-69
2022/03/31 09:58:33;;;;;;;9.07;5.95;;;;;;;;;;5091625;28;20047;-70
2022/03/31 10:01:00;;;;;;;8.68;7.15;;;;;;;;;;5067940;28;20024;-70
2022/03/31 10:03:26;;;;;;;8.82;7.55;;;;;;;;;;5084197;28;20040;-70
2022/03/31 10:05:52;;;;;;;9.68;6.22;;;;;;;;;;5067555;28;20028;-70
2022/03/31 10:08:18;;;;;;;7.03;5.78;;;;;;;;;;5078086;28;20056;-70
2022/03/31 10:10:46;;;;;;;6.85;5.95;;;;;;;;;;5067240;28;20041;-71
2022/03/31 10:13:15;;;;;;;8.30;6.85;;;;;;;;;;5073266;28;20039;-71
2022/03/31 10:15:42;;;;;;;6.25;5.65;;;;;;;;;;5082328;28;20028;-71
2022/03/31 10:18:08;;;;;;;6.22;5.57;;;;;;;;;;5082479;28;20387;-72
2022/03/31 10:20:34;;;;;;;4.70;4.30;;;;;;;;;;5079688;28;20032;-72
2022/03/31 10:25:46;;;;;;;5.15;3.83;;;;;;;;;;5076467;28;20637;-73
2022/03/31 10:28:13;;;;;;;5.88;4.53;;;;;;;;;;5094706;28;20028;-70
2022/03/31 10:30:40;;;;;;;4.05;3.60;;;;;;;;;;5079018;28;20028;-71
2022/03/31 10:33:08;;;;;;;3.72;3.42;;;;;;;;;;5098040;28;20086;-71
2022/03/31 10:35:38;;;;;;;4.38;3.28;;;;;;;;;;5097137;28;20032;-71
2022/03/31 10:38:18;;;;;;;3.58;3.28;;;;;;;;;;5081054;28;20410;-71
2022/03/31 10:40:49;;;;;;;4.05;3.65;;;;;;;;;;5077637;28;20035;-71
2022/03/31 10:43:28;;;;;;;5.05;4.10;;;;;;;;;;5097945;28;20087;-70
2022/03/31 10:45:55;;;;;;;4.43;4.03;;;;;;;;;;5093127;28;20032;-71
2022/03/31 10:48:21;;;;;;;5.88;4.15;;;;;;;;;;5094819;28;20074;-71
2022/03/31 10:50:49;;;;;;;4.53;4.13;;;;;;;;;;5101397;28;20494;-72
2022/03/31 10:53:15;;;;;;;4.43;3.85;;;;;;;;;;5091109;28;20040;-71
2022/03/31 10:55:49;;;;;;;4.15;3.60;;;;;;;;;;5094016;28;20025;-71
2022/03/31 10:58:25;;;;;;;4.70;3.83;;;;;;;;;;5096142;28;20039;-71
2022/03/31 11:00:51;;;;;;;4.85;3.83;;;;;;;;;;5085650;28;20035;-70
2022/03/31 11:03:18;;;;;;;4.65;4.00;;;;;;;;;;5080475;28;20036;-77
2022/03/31 11:05:44;;;;;;;4.18;3.72;;;;;;;;;;5060793;28;20059;-71
2022/03/31 11:08:16;;;;;;;4.15;3.75;;;;;;;;;;5073870;28;20024;-71
2022/03/31 11:10:43;;;;;;;5.13;4.63;;;;;;;;;;5087277;28;20024;-70
2022/03/31 11:13:09;;;;;;;4.07;3.65;;;;;;;;;;5090582;28;20040;-70
2022/03/31 11:15:35;;;;;;;3.80;3.40;;;;;;;;;;5077944;28;20078;-71
2022/03/31 11:18:01;;;;;;;3.97;3.38;;;;;;;;;;5077008;28;20031;-71
2022/03/31 11:20:28;;;;;;;4.82;3.50;;;;;;;;;;5092320;28;20023;-71
2022/03/31 11:22:55;;;;;;;3.20;2.83;;;;;;;;;;5087360;28;23268;-70
2022/03/31 11:25:22;;;;;;;3.88;3.47;;;;;;;;;;5084935;28;20047;-71
2022/03/31 11:27:49;;;;;;;4.45;3.72;;;;;;;;;;5080932;28;20036;-71
2022/03/31 11:30:19;;;;;;;4.97;4.38;;;;;;;;;;5088176;28;20064;-70
2022/03/31 11:32:48;;;;;;;3.25;2.65;;;;;;;;;;5085559;28;20171;-70
2022/03/31 11:35:16;;;;;;;3.83;3.35;;;;;;;;;;5080092;28;20059;-70
2022/03/31 11:37:49;;;;;;;3.25;2.95;;;;;;;;;;5067650;28;20034;-70
2022/03/31 11:40:20;;;;;;;3.60;3.30;;;;;;;;;;5082669;28;20139;-70
2022/03/31 11:42:48;;;;;;;4.20;2.50;;;;;;;;;;5091800;28;20077;-70
2022/03/31 11:45:24;;;;;;;4.78;3.30;;;;;;;;;;5076106;28;20085;-70
2022/03/31 11:47:57;;;;;;;4.20;3.17;;;;;;;;;;5079284;28;20771;-70
2022/03/31 11:50:23;;;;;;;;;;;;;;;;;;5083553;28;20471;-70
2022/03/31 11:52:50;;;;;;;3.38;2.70;;;;;;;;;;5113204;28;19992;-70
2022/03/31 11:55:17;;;;;;;3.00;2.70;;;;;;;;;;5077294;28;20044;-71
2022/03/31 11:57:53;;;;;;;3.80;3.03;;;;;;;;;;5082421;28;20048;-70
2022/03/31 12:00:20;;;;;;;3.28;2.97;;;;;;;;;;5102653;28;20031;-70
2022/03/31 12:02:55;;;;;;;5.05;3.40;;;;;;;;;;5081534;28;20066;-71
2022/03/31 12:05:21;;;;;;;4.43;3.08;;;;;;;;;;5086531;28;20028;-70
2022/03/31 12:07:48;;;;;;;3.67;3.35;;;;;;;;;;5081801;28;20035;-70
2022/03/31 12:10:14;;;;;;;2.70;2.30;;;;;;;;;;5081647;28;20040;-70
2022/03/31 12:12:50;;;;;;;3.45;3.15;;;;;;;;;;5084317;28;20048;-70
2022/03/31 12:15:23;;;;;;;2.80;2.60;;;;;;;;;;5091151;28;20042;-70
2022/03/31 12:18:16;;;;;;;3.50;2.90;;;;;;;;;;5085334;28;20094;-70
2022/03/31 12:20:42;;;;;;;3.70;2.97;;;;;;;;;;5086259;28;20043;-70
2022/03/31 12:23:19;;;;;;;4.20;2.90;;;;;;;;;;5077202;28;20107;-70
2022/03/31 12:25:46;;;;;;;4.82;3.38;;;;;;;;;;5088023;28;20387;-70
2022/03/31 12:28:12;;;;;;;2.80;2.60;;;;;;;;;;5078421;28;20101;-70
2022/03/31 12:30:39;;;;;;;3.05;2.53;;;;;;;;;;5077599;28;20085;-69
2022/03/31 12:33:15;;;;;;;5.20;2.92;;;;;;;;;;5090966;28;20174;-69
2022/03/31 12:35:41;;;;;;;2.85;2.65;;;;;;;;;;5089933;28;20039;-69
2022/03/31 12:38:09;;;;;;;7.10;3.00;;;;;;;;;;5074931;28;20034;-69
2022/03/31 12:40:35;;;;;;;3.03;2.60;;;;;;;;;;5078446;28;20058;-68
2022/03/31 12:43:01;;;;;;;2.95;2.65;;;;;;;;;;5084913;28;20037;-69
2022/03/31 12:45:29;;;;;;;9.90;2.92;;;;;;;;;;5084173;28;20059;-69
2022/03/31 12:47:55;;;;;;;2.83;2.63;;;;;;;;;;5081640;28;20051;-69
2022/03/31 12:50:23;;;;;;;7.97;3.00;;;;;;;;;;5091003;28;20032;-70
2022/03/31 12:53:07;;;;;;;3.25;2.80;;;;;;;;;;5075539;28;20032;-70
2022/03/31 12:55:38;;;;;;;2.90;2.40;;;;;;;;;;5099595;28;20047;-69
2022/03/31 12:58:06;;;;;;;3.42;3.13;;;;;;;;;;5086147;28;20045;-69
2022/03/31 13:00:33;;;;;;;3.65;3.00;;;;;;;;;;5088072;28;20064;-69
2022/03/31 13:03:00;;;;;;;3.63;3.22;;;;;;;;;;5085159;28;20463;-69
2022/03/31 13:05:27;;;;;;;4.30;3.47;;;;;;;;;;5089093;28;20032;-70
2022/03/31 13:07:54;;;;;;;4.47;3.78;;;;;;;;;;5085302;28;20020;-69
2022/03/31 13:10:24;;;;;;;4.97;3.92;;;;;;;;;;5062885;28;20112;-70
2022/03/31 13:12:50;;;;;;;4.57;3.92;;;;;;;;;;5069782;28;20036;-69
2022/03/31 13:15:17;;;;;;;4.38;3.97;;;;;;;;;;5090064;28;20043;-70
2022/03/31 13:17:46;;;;;;;4.40;3.95;;;;;;;;;;5074850;28;20159;-70
2022/03/31 13:20:16;;;;;;;4.30;3.90;;;;;;;;;;5085389;28;20060;-70
2022/03/31 13:22:43;;;;;;;4.22;3.83;;;;;;;;;;5092310;28;20020;-71
2022/03/31 13:25:09;;;;;;;4.35;3.95;;;;;;;;;;5086294;28;20039;-71
2022/03/31 13:27:36;;;;;;;5.22;3.80;;;;;;;;;;5084816;28;20490;-70
2022/03/31 13:30:03;;;;;;;4.15;3.75;;;;;;;;;;5073226;28;20384;-70
2022/03/31 13:32:29;;;;;;;4.15;3.58;;;;;;;;;;5082696;28;20025;-70
2022/03/31 13:34:56;;;;;;;4.43;4.03;;;;;;;;;;5087914;28;20119;-70
2022/03/31 13:37:24;;;;;;;3.92;3.53;;;;;;;;;;5070532;28;20057;-70
2022/03/31 13:39:50;;;;;;;5.18;3.80;;;;;;;;;;5078518;28;20194;-70
2022/03/31 13:42:17;;;;;;;7.82;5.07;;;;;;;;;;5073553;28;20032;-70
2022/03/31 13:44:43;;;;;;;4.70;4.13;;;;;;;;;;5087970;28;20070;-70
2022/03/31 13:47:10;;;;;;;10.38;4.93;;;;;;;;;;5079509;28;20048;-70
2022/03/31 13:49:37;;;;;;;7.03;5.10;;;;;;;;;;5083200;28;20674;-71
2022/03/31 13:52:03;;;;;;;6.80;4.97;;;;;;;;;;5075815;28;20028;-71
2022/03/31 13:54:31;;;;;;;5.45;4.63;;;;;;;;;;5093188;28;20035;-70
2022/03/31 13:56:58;;;;;;;5.82;4.75;;;;;;;;;;5086304;28;20050;-70
2022/03/31 14:02:09;;;;;;;5.22;4.72;;;;;;;;;;5074934;28;20062;-70
2022/03/31 14:04:36;;;;;;;5.55;4.82;;;;;;;;;;5104239;28;20427;-69
2022/03/31 14:07:06;;;;;;;6.53;4.70;;;;;;;;;;5076064;28;20028;-69
2022/03/31 14:09:32;;;;;;;5.65;4.78;;;;;;;;;;5085654;28;20548;-69
2022/03/31 14:11:59;;;;;;;5.65;5.05;;;;;;;;;;5077361;28;20036;-69
2022/03/31 14:14:27;;;;;;;7.18;5.60;;;;;;;;;;5091708;28;20082;-69
2022/03/31 14:16:54;;;;;;;6.97;6.25;;;;;;;;;;5082848;28;20388;-70
2022/03/31 14:19:23;;;;;;;7.10;5.60;;;;;;;;;;5098572;28;20032;-70
2022/03/31 14:21:49;;;;;;;8.32;6.63;;;;;;;;;;5096191;28;20065;-70
2022/03/31 14:24:16;;;;;;;7.10;6.38;;;;;;;;;;5088236;28;20028;-71
2022/03/31 14:26:43;;;;;;;7.38;6.68;;;;;;;;;;5087216;28;20035;-70
2022/03/31 14:29:13;;;;;;;9.70;6.97;;;;;;;;;;5100209;28;20040;-69
2022/03/31 14:31:39;;;;;;;7.60;6.50;;;;;;;;;;5090859;28;20032;-68
2022/03/31 14:34:06;;;;;;;8.63;6.18;;;;;;;;;;5083991;28;20039;-70
2022/03/31 14:36:32;;;;;;;7.40;6.40;;;;;;;;;;5071830;28;20053;-69
2022/03/31 14:38:58;;;;;;;7.93;5.95;;;;;;;;;;5085040;28;20040;-69
2022/03/31 14:41:25;;;;;;;9.55;5.93;;;;;;;;;;5071640;28;20036;-69
2022/03/31 14:43:56;;;;;;;9.80;6.43;;;;;;;;;;5100726;28;20562;-70
2022/03/31 14:46:22;;;;;;;7.53;5.47;;;;;;;;;;5093846;28;20111;-69
2022/03/31 14:48:50;;;;;;;10.07;6.75;;;;;;;;;;5094822;28;20036;-69
2022/03/31 14:51:17;;;;;;;7.97;6.40;;;;;;;;;;5097984;28;20063;-69